createdAt,value
2019-06-15T00:00:32.425Z,25.30
2019-06-15T00:03:01.915Z,25.30
2019-06-15T00:05:31.488Z,25.30
2019-06-15T00:08:04.029Z,25.20
2019-06-15T00:10:32.341Z,25.20
2019-06-15T00:13:01.899Z,25.20
2019-06-15T00:15:31.496Z,25.10
2019-06-15T00:18:01.165Z,25.10
2019-06-15T00:20:30.672Z,25.10
2019-06-15T00:23:00.132Z,25.10
2019-06-15T00:25:32.486Z,25.10
2019-06-15T00:28:02.349Z,25.10
2019-06-15T00:30:31.897Z,25.10
2019-06-15T00:33:01.434Z,25.10
2019-06-15T00:35:31.075Z,25.10
2019-06-15T00:38:00.881Z,25.10
2019-06-15T00:40:30.458Z,25.10
2019-06-15T00:42:59.996Z,25.10
2019-06-15T00:45:29.480Z,25.10
2019-06-15T00:47:59.024Z,25.00
2019-06-15T00:50:28.543Z,25.00
2019-06-15T00:52:58.196Z,25.00
2019-06-15T00:55:27.722Z,25.00
2019-06-15T00:57:57.276Z,25.00
2019-06-15T01:00:27.021Z,25.00
2019-06-15T01:02:56.546Z,25.00
2019-06-15T01:05:26.197Z,25.00
2019-06-15T01:07:55.682Z,24.90
2019-06-15T01:10:25.303Z,24.90
2019-06-15T01:12:54.831Z,24.90
2019-06-15T01:15:24.657Z,24.90
2019-06-15T01:17:54.169Z,24.90
2019-06-15T01:20:23.735Z,24.90
2019-06-15T01:22:53.306Z,24.80
2019-06-15T01:25:22.973Z,24.90
2019-06-15T01:27:52.441Z,24.80
2019-06-15T01:30:22.227Z,24.80
2019-06-15T01:32:51.717Z,24.80
2019-06-15T01:35:21.351Z,24.80
2019-06-15T01:37:50.846Z,24.70
2019-06-15T01:40:20.495Z,24.70
2019-06-15T01:42:50.011Z,24.70
2019-06-15T01:45:25.947Z,24.70
2019-06-15T01:47:56.026Z,24.70
2019-06-15T01:50:25.585Z,24.70
2019-06-15T01:52:55.091Z,24.70
2019-06-15T01:55:24.532Z,24.70
2019-06-15T01:57:54.066Z,24.70
2019-06-15T02:00:26.010Z,24.70
2019-06-15T02:02:55.540Z,24.70
2019-06-15T02:05:25.010Z,24.60
2019-06-15T02:07:54.503Z,24.70
2019-06-15T02:10:29.218Z,24.60
2019-06-15T02:12:59.316Z,24.60
2019-06-15T02:15:29.038Z,24.60
2019-06-15T02:17:58.582Z,24.50
2019-06-15T02:20:28.120Z,24.50
2019-06-15T02:22:57.628Z,24.50
2019-06-15T02:25:35.897Z,24.50
2019-06-15T02:28:00.626Z,24.50
2019-06-15T02:30:32.069Z,24.40
2019-06-15T02:33:01.848Z,24.30
2019-06-15T02:35:31.648Z,24.30
2019-06-15T02:38:01.323Z,24.40
2019-06-15T02:40:30.953Z,24.20
2019-06-15T02:43:00.526Z,24.30
2019-06-15T02:45:30.076Z,24.20
2019-06-15T02:47:59.682Z,24.10
2019-06-15T02:50:29.246Z,24.10
2019-06-15T02:52:58.890Z,23.90
2019-06-15T02:55:28.458Z,23.80
2019-06-15T02:57:57.957Z,23.60
2019-06-15T03:00:41.001Z,23.60
2019-06-15T03:03:10.575Z,23.40
2019-06-15T03:05:40.267Z,23.30
2019-06-15T03:08:09.930Z,23.20
2019-06-15T03:10:39.425Z,23.10
2019-06-15T03:13:09.006Z,22.90
2019-06-15T03:15:38.533Z,22.90
2019-06-15T03:18:08.020Z,22.70
2019-06-15T03:20:37.609Z,22.70
2019-06-15T03:23:07.086Z,22.50
2019-06-15T03:25:36.637Z,22.60
2019-06-15T03:28:06.126Z,22.50
2019-06-15T03:30:35.732Z,22.60
2019-06-15T03:33:05.411Z,22.50
2019-06-15T03:35:39.455Z,22.60
2019-06-15T03:38:06.199Z,22.60
2019-06-15T03:40:35.750Z,22.60
2019-06-15T03:43:05.531Z,22.60
2019-06-15T03:45:35.008Z,22.60
2019-06-15T03:48:04.684Z,22.60
2019-06-15T03:50:34.149Z,22.60
2019-06-15T03:53:03.708Z,22.60
2019-06-15T03:55:33.246Z,22.60
2019-06-15T03:58:02.776Z,22.60
2019-06-15T04:00:55.173Z,22.70
2019-06-15T04:03:24.679Z,22.60
2019-06-15T04:05:54.182Z,22.70
2019-06-15T04:08:23.653Z,22.70
2019-06-15T04:10:53.185Z,22.80
2019-06-15T04:13:22.928Z,22.80
2019-06-15T04:16:04.950Z,22.80
2019-06-15T04:18:34.447Z,22.80
2019-06-15T04:21:04.009Z,22.80
2019-06-15T04:23:33.491Z,22.70
2019-06-15T04:26:03.030Z,22.70
2019-06-15T04:28:32.744Z,22.70
2019-06-15T04:31:02.311Z,22.80
2019-06-15T04:33:31.794Z,22.80
2019-06-15T04:36:01.565Z,22.90
2019-06-15T04:38:31.054Z,22.90
2019-06-15T04:41:01.619Z,22.90
2019-06-15T04:43:32.846Z,22.90
2019-06-15T04:46:02.360Z,23.00
2019-06-15T04:48:31.834Z,23.00
2019-06-15T04:51:01.322Z,23.00
2019-06-15T04:53:30.871Z,23.10
2019-06-15T04:56:00.383Z,23.10
2019-06-15T04:58:30.082Z,23.10
2019-06-15T05:00:59.575Z,23.20
2019-06-15T05:03:29.120Z,23.10
2019-06-15T05:05:58.636Z,23.20
2019-06-15T05:08:28.134Z,23.10
2019-06-15T05:10:59.997Z,23.10
2019-06-15T05:13:28.827Z,23.20
2019-06-15T05:15:58.467Z,23.20
2019-06-15T05:18:27.957Z,23.20
2019-06-15T05:20:57.535Z,23.20
2019-06-15T05:23:27.057Z,23.30
2019-06-15T05:25:56.558Z,23.30
2019-06-15T05:28:26.055Z,23.40
2019-06-15T05:30:55.543Z,23.40
2019-06-15T05:33:25.118Z,23.50
2019-06-15T05:35:54.599Z,23.50
2019-06-15T05:38:24.143Z,23.60
2019-06-15T05:40:53.647Z,23.60
2019-06-15T05:43:23.179Z,23.60
2019-06-15T05:45:52.727Z,23.60
2019-06-15T05:48:22.241Z,23.60
2019-06-15T05:50:51.801Z,23.60
2019-06-15T05:53:21.300Z,23.60
2019-06-15T05:55:50.834Z,23.70
2019-06-15T05:58:20.433Z,23.70
2019-06-15T06:00:49.936Z,23.80
2019-06-15T06:03:19.473Z,23.80
2019-06-15T06:05:48.971Z,23.90
2019-06-15T06:08:18.442Z,23.90
2019-06-15T06:10:48.036Z,23.90
2019-06-15T06:13:17.615Z,24.00
2019-06-15T06:15:47.231Z,24.10
2019-06-15T06:18:16.792Z,24.10
2019-06-15T06:20:46.340Z,24.10
2019-06-15T06:23:15.855Z,24.10
2019-06-15T06:25:45.334Z,24.10
2019-06-15T06:28:14.916Z,24.20
2019-06-15T06:30:44.417Z,24.30
2019-06-15T06:33:13.933Z,24.30
2019-06-15T06:35:43.838Z,24.30
2019-06-15T06:38:13.422Z,24.30
2019-06-15T06:40:42.928Z,24.40
2019-06-15T06:43:12.492Z,24.40
2019-06-15T06:45:42.112Z,24.50
2019-06-15T06:48:11.625Z,24.50
2019-06-15T06:50:41.383Z,24.50
2019-06-15T06:53:10.935Z,24.60
2019-06-15T06:55:40.485Z,24.60
2019-06-15T06:58:10.084Z,24.60
2019-06-15T07:00:39.584Z,24.60
2019-06-15T07:03:09.176Z,24.70
2019-06-15T07:05:38.832Z,24.80
2019-06-15T07:08:08.366Z,24.90
2019-06-15T07:10:37.861Z,25.00
2019-06-15T07:13:07.419Z,24.90
2019-06-15T07:15:37.013Z,25.00
2019-06-15T07:18:06.519Z,25.10
2019-06-15T07:20:36.161Z,25.20
2019-06-15T07:23:05.721Z,25.20
2019-06-15T07:25:35.321Z,25.20
2019-06-15T07:28:08.295Z,25.20
2019-06-15T07:30:36.265Z,25.40
2019-06-15T07:33:05.756Z,25.40
2019-06-15T07:35:35.295Z,25.50
2019-06-15T07:38:04.851Z,25.60
2019-06-15T07:40:34.374Z,25.70
2019-06-15T07:43:03.875Z,25.70
2019-06-15T07:45:33.594Z,25.70
2019-06-15T07:48:03.260Z,25.70
2019-06-15T07:50:32.903Z,25.70
2019-06-15T07:53:02.520Z,25.90
2019-06-15T07:55:33.750Z,25.90
2019-06-15T07:58:03.260Z,26.00
2019-06-15T08:00:32.904Z,26.10
2019-06-15T08:03:02.554Z,26.00
2019-06-15T08:05:32.104Z,26.10
2019-06-15T08:08:02.003Z,26.10
2019-06-15T08:10:31.725Z,26.20
2019-06-15T08:13:01.411Z,26.20
2019-06-15T08:15:31.102Z,26.30
2019-06-15T08:18:00.750Z,26.40
2019-06-15T08:20:33.559Z,26.40
2019-06-15T08:23:03.476Z,26.50
2019-06-15T08:25:33.102Z,26.50
2019-06-15T08:28:03.305Z,26.60
2019-06-15T08:30:41.350Z,26.60
2019-06-15T08:33:11.160Z,26.70
2019-06-15T08:35:40.732Z,26.70
2019-06-15T08:38:10.305Z,26.70
2019-06-15T08:40:39.878Z,26.70
2019-06-15T08:43:09.511Z,26.80
2019-06-15T08:45:39.021Z,26.90
2019-06-15T08:48:08.895Z,27.10
2019-06-15T08:50:38.502Z,27.20
2019-06-15T08:53:08.112Z,27.20
2019-06-15T08:55:37.665Z,27.40
2019-06-15T08:58:07.195Z,27.60
2019-06-15T09:00:36.905Z,27.80
2019-06-15T09:03:12.493Z,28.00
2019-06-15T09:05:42.269Z,28.10
2019-06-15T09:08:11.822Z,28.40
2019-06-15T09:10:42.684Z,28.70
2019-06-15T09:13:12.216Z,28.90
2019-06-15T09:15:50.472Z,29.10
2019-06-15T09:18:20.203Z,29.20
2019-06-15T09:20:50.483Z,29.30
2019-06-15T09:23:20.383Z,29.30
2019-06-15T09:25:50.028Z,29.20
2019-06-15T09:28:19.556Z,29.40
2019-06-15T09:30:49.076Z,29.50
2019-06-15T09:33:18.562Z,29.70
2019-06-15T09:35:48.469Z,29.80
2019-06-15T09:38:18.192Z,29.80
2019-06-15T09:40:48.034Z,29.80
2019-06-15T09:43:17.704Z,30.10
2019-06-15T09:45:47.393Z,30.30
2019-06-15T09:48:16.877Z,30.10
2019-06-15T09:50:46.441Z,30.20
2019-06-15T09:53:16.132Z,30.40
2019-06-15T09:55:45.898Z,30.40
2019-06-15T09:58:15.365Z,30.30
2019-06-15T10:00:45.056Z,30.40
2019-06-15T10:03:14.693Z,30.70
2019-06-15T10:05:44.330Z,31.00
2019-06-15T10:08:14.101Z,30.90
2019-06-15T10:10:43.778Z,31.00
2019-06-15T10:13:13.343Z,31.00
2019-06-15T10:15:42.962Z,31.20
2019-06-15T10:18:12.634Z,31.40
2019-06-15T10:20:42.283Z,31.70
2019-06-15T10:23:11.888Z,31.70
2019-06-15T10:25:41.435Z,31.60
2019-06-15T10:28:11.021Z,31.30
2019-06-15T10:30:42.066Z,31.40
2019-06-15T10:33:11.669Z,31.60
2019-06-15T10:35:41.158Z,31.50
2019-06-15T10:38:10.972Z,31.30
2019-06-15T10:40:40.549Z,31.00
2019-06-15T10:43:10.161Z,31.20
2019-06-15T10:45:39.813Z,31.60
2019-06-15T10:48:09.539Z,31.80
2019-06-15T10:50:39.159Z,32.00
2019-06-15T10:53:08.844Z,31.80
2019-06-15T10:55:38.562Z,31.40
2019-06-15T10:58:08.273Z,31.30
2019-06-15T11:00:39.756Z,31.00
2019-06-15T11:03:09.536Z,30.90
2019-06-15T11:05:39.180Z,30.70
2019-06-15T11:08:09.032Z,30.70
2019-06-15T11:10:57.593Z,30.60
2019-06-15T11:13:27.861Z,30.40
2019-06-15T11:15:58.122Z,30.30
2019-06-15T11:18:28.490Z,30.30
2019-06-15T11:20:58.950Z,30.20
2019-06-15T11:23:48.167Z,30.20
2019-06-15T11:26:17.730Z,30.20
2019-06-15T11:28:47.426Z,30.30
2019-06-15T11:31:17.024Z,30.30
2019-06-15T11:33:46.608Z,30.40
2019-06-15T11:36:16.244Z,30.40
2019-06-15T11:38:45.849Z,30.30
2019-06-15T11:41:15.452Z,30.40
2019-06-15T11:43:44.965Z,30.30
2019-06-15T11:46:14.544Z,30.40
2019-06-15T11:48:44.031Z,30.40
2019-06-15T11:51:13.509Z,30.40
2019-06-15T11:53:43.084Z,30.40
2019-06-15T11:56:12.705Z,30.40
2019-06-15T11:58:42.325Z,30.40
2019-06-15T12:01:12.107Z,30.50
2019-06-15T12:03:41.587Z,30.50
2019-06-15T12:06:11.212Z,30.60
2019-06-15T12:08:41.007Z,30.70
2019-06-15T12:11:10.570Z,30.70
2019-06-15T12:13:40.207Z,30.70
2019-06-15T12:16:10.023Z,30.80
2019-06-15T12:18:39.920Z,30.80
2019-06-15T12:21:09.487Z,30.80
2019-06-15T12:23:39.183Z,30.90
2019-06-15T12:26:08.811Z,30.90
2019-06-15T12:28:38.629Z,30.90
2019-06-15T12:31:08.475Z,30.80
2019-06-15T12:33:38.035Z,30.80
2019-06-15T12:36:18.870Z,30.70
2019-06-15T12:38:39.858Z,30.70
2019-06-15T12:41:09.509Z,30.80
2019-06-15T12:43:39.096Z,30.80
2019-06-15T12:46:08.785Z,30.70
2019-06-15T12:48:39.776Z,30.70
2019-06-15T12:51:09.296Z,30.60
2019-06-15T12:53:38.926Z,30.50
2019-06-15T12:56:08.563Z,30.50
2019-06-15T12:58:38.247Z,30.50
2019-06-15T13:01:07.958Z,30.50
2019-06-15T13:03:49.196Z,30.60
2019-06-15T13:06:18.944Z,30.60
2019-06-15T13:08:48.468Z,30.60
2019-06-15T13:11:18.188Z,30.60
2019-06-15T13:13:47.762Z,30.60
2019-06-15T13:16:17.354Z,30.80
2019-06-15T13:18:47.032Z,30.80
2019-06-15T13:21:16.726Z,30.80
2019-06-15T13:23:46.205Z,30.80
2019-06-15T13:26:15.894Z,30.80
2019-06-15T13:28:45.512Z,30.80
2019-06-15T13:31:18.359Z,30.80
2019-06-15T13:33:46.306Z,30.70
2019-06-15T13:36:15.931Z,30.70
2019-06-15T13:38:45.746Z,30.70
2019-06-15T13:41:15.453Z,30.70
2019-06-15T13:43:45.225Z,30.70
2019-06-15T13:46:14.785Z,30.80
2019-06-15T13:48:44.378Z,30.70
2019-06-15T13:51:13.885Z,30.70
2019-06-15T13:53:43.402Z,30.70
2019-06-15T13:56:12.980Z,30.70
2019-06-15T13:58:42.667Z,30.70
2019-06-15T14:01:12.420Z,30.70
2019-06-15T14:03:42.024Z,30.70
2019-06-15T14:06:11.698Z,30.70
2019-06-15T14:08:41.274Z,30.60
2019-06-15T14:11:10.850Z,30.70
2019-06-15T14:13:40.335Z,30.70
2019-06-15T14:16:10.214Z,30.60
2019-06-15T14:18:39.892Z,30.60
2019-06-15T14:21:09.432Z,30.60
2019-06-15T14:23:39.154Z,30.50
2019-06-15T14:26:08.844Z,30.40
2019-06-15T14:28:38.392Z,30.40
2019-06-15T14:31:08.059Z,30.30
2019-06-15T14:33:37.730Z,30.30
2019-06-15T14:36:07.519Z,30.30
2019-06-15T14:38:37.086Z,30.30
2019-06-15T14:41:06.573Z,30.30
2019-06-15T14:43:36.141Z,30.30
2019-06-15T14:46:05.830Z,30.30
2019-06-15T14:48:35.445Z,30.30
2019-06-15T14:51:05.269Z,30.30
2019-06-15T14:53:36.701Z,30.20
2019-06-15T14:56:06.785Z,30.20
2019-06-15T14:58:36.691Z,30.20
2019-06-15T15:01:06.633Z,30.20
2019-06-15T15:03:37.648Z,30.20
2019-06-15T15:06:07.645Z,30.10
2019-06-15T15:08:37.137Z,30.20
2019-06-15T15:11:06.769Z,30.20
2019-06-15T15:13:36.795Z,30.20
2019-06-15T15:16:07.210Z,30.20
2019-06-15T15:18:36.819Z,30.20
2019-06-15T15:21:06.960Z,30.20
2019-06-15T15:23:36.700Z,30.10
2019-06-15T15:26:06.625Z,30.20
2019-06-15T15:28:36.663Z,30.10
2019-06-15T15:31:06.754Z,30.10
2019-06-15T15:33:36.590Z,30.20
2019-06-15T15:36:07.202Z,30.20
2019-06-15T15:38:37.063Z,30.20
2019-06-15T15:41:06.840Z,30.20
2019-06-15T15:43:36.921Z,30.20
2019-06-15T15:46:07.098Z,30.20
2019-06-15T15:48:36.855Z,30.20
2019-06-15T15:51:06.685Z,30.10
2019-06-15T15:53:37.408Z,30.00
2019-06-15T15:56:07.371Z,29.90
2019-06-15T15:58:36.914Z,29.90
2019-06-15T16:01:06.707Z,29.80
2019-06-15T16:03:37.091Z,29.70
2019-06-15T16:06:06.970Z,29.70
2019-06-15T16:08:36.677Z,29.70
2019-06-15T16:11:06.408Z,29.60
2019-06-15T16:13:36.105Z,29.50
2019-06-15T16:16:05.703Z,29.40
2019-06-15T16:18:36.483Z,29.30
2019-06-15T16:21:06.515Z,29.20
2019-06-15T16:23:36.111Z,29.20
2019-06-15T16:26:06.016Z,29.20
2019-06-15T16:28:36.619Z,29.10
2019-06-15T16:31:13.144Z,29.10
2019-06-15T16:33:37.597Z,29.00
2019-06-15T16:36:07.321Z,28.90
2019-06-15T16:38:37.241Z,28.80
2019-06-15T16:41:06.883Z,28.80
2019-06-15T16:43:37.058Z,28.80
2019-06-15T16:46:06.873Z,28.70
2019-06-15T16:48:36.564Z,28.70
2019-06-15T16:51:06.795Z,28.70
2019-06-15T16:53:37.306Z,28.80
2019-06-15T16:56:07.216Z,28.80
2019-06-15T16:58:37.039Z,28.70
2019-06-15T17:01:06.853Z,28.80
2019-06-15T17:03:36.856Z,28.70
2019-06-15T17:06:07.257Z,28.70
2019-06-15T17:08:37.044Z,28.70
2019-06-15T17:11:06.925Z,28.70
2019-06-15T17:13:37.116Z,28.70
2019-06-15T17:16:06.924Z,28.70
2019-06-15T17:18:36.695Z,28.60
2019-06-15T17:21:07.015Z,28.60
2019-06-15T17:23:36.855Z,28.50
2019-06-15T17:26:06.584Z,28.50
2019-06-15T17:28:36.995Z,28.50
2019-06-15T17:31:06.922Z,28.50
2019-06-15T17:33:38.236Z,28.50
2019-06-15T17:36:07.784Z,28.50
2019-06-15T17:38:37.312Z,28.50
2019-06-15T17:41:06.984Z,28.40
2019-06-15T17:43:36.652Z,28.40
2019-06-15T17:46:07.219Z,28.30
2019-06-15T17:48:37.195Z,28.30
2019-06-15T17:51:06.876Z,28.20
2019-06-15T17:53:36.896Z,28.20
2019-06-15T17:56:07.243Z,28.20
2019-06-15T17:58:37.203Z,28.10
2019-06-15T18:01:06.873Z,28.10
2019-06-15T18:03:49.837Z,28.00
2019-06-15T18:06:08.086Z,28.00
2019-06-15T18:08:37.739Z,28.00
2019-06-15T18:11:07.458Z,27.90
2019-06-15T18:13:37.347Z,27.90
2019-06-15T18:16:07.087Z,27.90
2019-06-15T18:18:37.240Z,27.80
2019-06-15T18:21:06.915Z,27.70
2019-06-15T18:23:36.918Z,27.80
2019-06-15T18:26:07.283Z,27.70
2019-06-15T18:28:36.945Z,27.60
2019-06-15T18:31:06.777Z,27.60
2019-06-15T18:33:37.327Z,27.60
2019-06-15T18:36:06.961Z,27.50
2019-06-15T18:38:37.210Z,27.50
2019-06-15T18:41:07.436Z,27.40
2019-06-15T18:43:37.279Z,27.40
2019-06-15T18:46:07.275Z,27.50
2019-06-15T18:48:37.943Z,27.40
2019-06-15T18:51:07.722Z,27.30
2019-06-15T18:53:39.303Z,27.30
2019-06-15T18:56:08.747Z,27.20
2019-06-15T18:58:38.360Z,27.20
2019-06-15T19:01:07.952Z,27.10
2019-06-15T19:03:39.142Z,27.10
2019-06-15T19:06:08.884Z,27.00
2019-06-15T19:08:38.538Z,26.90
2019-06-15T19:11:08.040Z,27.00
2019-06-15T19:13:37.754Z,26.80
2019-06-15T19:16:07.356Z,26.80
2019-06-15T19:18:37.097Z,26.80
2019-06-15T19:21:07.130Z,26.90
2019-06-15T19:23:36.799Z,26.90
2019-06-15T19:26:06.604Z,26.80
2019-06-15T19:28:36.999Z,26.80
2019-06-15T19:31:06.948Z,26.90
2019-06-15T19:33:37.650Z,26.90
2019-06-15T19:36:07.786Z,26.80
2019-06-15T19:38:37.348Z,26.80
2019-06-15T19:41:07.149Z,26.70
2019-06-15T19:43:36.876Z,26.70
2019-06-15T19:46:07.212Z,26.70
2019-06-15T19:48:37.125Z,26.70
2019-06-15T19:51:09.944Z,26.60
2019-06-15T19:53:37.928Z,26.60
2019-06-15T19:56:07.533Z,26.60
2019-06-15T19:58:37.040Z,26.70
2019-06-15T20:01:06.975Z,26.60
2019-06-15T20:03:36.756Z,26.60
2019-06-15T20:06:06.684Z,26.60
2019-06-15T20:08:36.472Z,26.50
2019-06-15T20:11:07.215Z,26.60
2019-06-15T20:13:37.339Z,26.60
2019-06-15T20:16:07.997Z,26.40
2019-06-15T20:18:37.754Z,26.50
2019-06-15T20:21:07.531Z,26.40
2019-06-15T20:23:37.665Z,26.40
2019-06-15T20:26:07.410Z,26.30
2019-06-15T20:28:36.903Z,26.30
2019-06-15T20:31:06.810Z,26.30
2019-06-15T20:33:37.031Z,26.30
2019-06-15T20:36:06.969Z,26.30
2019-06-15T20:38:36.681Z,26.20
2019-06-15T20:41:07.317Z,26.20
2019-06-15T20:43:37.130Z,26.10
2019-06-15T20:46:07.186Z,26.10
2019-06-15T20:48:36.879Z,26.10
2019-06-15T20:51:10.026Z,26.00
2019-06-15T20:53:37.876Z,26.00
2019-06-15T20:56:07.390Z,26.10
2019-06-15T20:58:37.451Z,26.00
2019-06-15T21:01:07.310Z,26.00
2019-06-15T21:03:37.048Z,25.80
2019-06-15T21:06:07.040Z,25.80
2019-06-15T21:08:36.920Z,25.80
2019-06-15T21:11:07.060Z,25.70
2019-06-15T21:13:37.492Z,25.70
2019-06-15T21:16:07.486Z,25.70
2019-06-15T21:18:37.425Z,25.60
2019-06-15T21:21:07.189Z,25.60
2019-06-15T21:23:37.384Z,25.60
2019-06-15T21:26:07.544Z,25.50
2019-06-15T21:28:37.291Z,25.50
2019-06-15T21:31:07.026Z,25.40
2019-06-15T21:33:36.653Z,25.40
2019-06-15T21:36:06.494Z,25.30
2019-06-15T21:38:36.384Z,25.40
2019-06-15T21:41:07.852Z,25.40
2019-06-15T21:43:37.623Z,25.30
2019-06-15T21:46:16.713Z,25.20
2019-06-15T21:48:46.944Z,25.10
2019-06-15T21:51:16.691Z,25.10
2019-06-15T21:53:46.983Z,25.00
2019-06-15T21:56:16.674Z,24.90
2019-06-15T21:58:46.357Z,24.90
2019-06-15T22:01:23.113Z,24.80
2019-06-15T22:03:52.713Z,24.80
2019-06-15T22:06:22.306Z,24.70
2019-06-15T22:08:51.912Z,24.80
2019-06-15T22:11:21.576Z,24.80
2019-06-15T22:13:51.151Z,24.80
2019-06-15T22:16:20.777Z,24.80
2019-06-15T22:18:50.386Z,24.70
2019-06-15T22:21:19.996Z,24.70
2019-06-15T22:23:49.476Z,24.70
2019-06-15T22:26:19.132Z,24.70
2019-06-15T22:28:48.738Z,24.60
2019-06-15T22:31:18.351Z,24.60
2019-06-15T22:33:47.909Z,24.50
2019-06-15T22:36:24.916Z,24.50
2019-06-15T22:38:48.821Z,24.40
2019-06-15T22:41:18.375Z,24.30
2019-06-15T22:43:47.982Z,24.30
2019-06-15T22:46:17.677Z,24.10
2019-06-15T22:48:47.390Z,24.10
2019-06-15T22:51:17.140Z,24.10
2019-06-15T22:53:47.253Z,24.00
2019-06-15T22:56:17.382Z,24.00
2019-06-15T22:58:47.056Z,24.00
2019-06-15T23:01:17.069Z,23.90
2019-06-15T23:03:46.842Z,23.90
2019-06-15T23:06:16.622Z,23.90
2019-06-15T23:08:47.059Z,23.90
2019-06-15T23:11:17.462Z,23.90
2019-06-15T23:13:47.253Z,23.80
2019-06-15T23:16:16.894Z,23.80
2019-06-15T23:18:46.890Z,23.80
2019-06-15T23:21:17.286Z,23.90
2019-06-15T23:23:47.401Z,23.80
2019-06-15T23:26:16.948Z,23.80
2019-06-15T23:28:46.877Z,23.70
2019-06-15T23:31:16.834Z,23.70
2019-06-15T23:33:46.949Z,23.60
2019-06-15T23:36:22.167Z,23.60
2019-06-15T23:38:51.646Z,23.60
2019-06-15T23:41:21.292Z,23.60
2019-06-15T23:43:50.831Z,23.50
2019-06-15T23:46:20.366Z,23.40
2019-06-15T23:48:49.920Z,23.30
2019-06-15T23:51:19.493Z,23.30
2019-06-15T23:53:48.985Z,23.20
2019-06-15T23:56:18.581Z,23.10
